createdAt,value
2022-12-08T00:02:20.270Z,67.58
2022-12-08T00:05:41.406Z,67.35
2022-12-08T00:09:02.196Z,67.72
2022-12-08T00:12:06.028Z,67.50
2022-12-08T00:15:08.487Z,68.18
2022-12-08T00:18:10.777Z,67.94
2022-12-08T00:21:13.061Z,67.33
2022-12-08T00:24:15.416Z,67.79
2022-12-08T00:27:18.191Z,67.56
2022-12-08T00:30:20.889Z,67.44
2022-12-08T00:33:23.267Z,67.92
2022-12-08T00:36:25.641Z,67.95
2022-12-08T00:39:27.990Z,67.59
2022-12-08T00:42:30.293Z,68.58
2022-12-08T00:45:32.611Z,68.48
2022-12-08T00:48:35.104Z,67.85
2022-12-08T00:51:37.705Z,68.22
2022-12-08T00:54:39.970Z,67.36
2022-12-08T00:57:42.228Z,66.71
2022-12-08T01:00:44.654Z,66.94
2022-12-08T01:03:47.035Z,66.85
2022-12-08T01:06:49.603Z,68.31
2022-12-08T01:09:52.886Z,67.87
2022-12-08T01:12:55.142Z,68.63
2022-12-08T01:15:57.402Z,68.14
2022-12-08T01:19:01.161Z,67.89
2022-12-08T01:22:03.575Z,67.55
2022-12-08T01:25:06.815Z,66.95
2022-12-08T01:28:09.086Z,68.23
2022-12-08T01:31:21.430Z,67.48
2022-12-08T01:34:23.792Z,67.97
2022-12-08T01:37:26.086Z,67.71
2022-12-08T01:40:28.461Z,68.38
2022-12-08T01:44:09.482Z,67.43
2022-12-08T01:47:12.230Z,68.97
2022-12-08T01:50:16.305Z,68.33
2022-12-08T01:53:30.634Z,67.67
2022-12-08T01:56:38.033Z,67.54
2022-12-08T01:59:45.361Z,67.76
2022-12-08T02:02:56.960Z,68.32
2022-12-08T02:05:59.216Z,68.24
2022-12-08T02:09:02.051Z,67.15
2022-12-08T02:12:04.704Z,67.68
2022-12-08T02:15:07.578Z,68.92
2022-12-08T02:18:26.009Z,68.92
2022-12-08T02:21:47.046Z,67.36
2022-12-08T02:25:07.717Z,68.01
2022-12-08T02:28:26.906Z,68.41
2022-12-08T02:31:44.417Z,68.83
2022-12-08T02:35:08.713Z,68.80
2022-12-08T02:38:33.590Z,67.60
2022-12-08T02:41:49.580Z,68.45
2022-12-08T02:44:58.156Z,68.61
2022-12-08T02:48:00.758Z,68.75
2022-12-08T02:51:03.549Z,68.80
2022-12-08T02:54:06.523Z,68.48
2022-12-08T02:57:23.941Z,68.51
2022-12-08T03:00:30.116Z,68.47
2022-12-08T03:03:41.619Z,67.69
2022-12-08T03:06:52.983Z,68.30
2022-12-08T03:10:05.290Z,68.05
2022-12-08T03:13:16.919Z,68.52
2022-12-08T03:16:23.649Z,68.10
2022-12-08T03:19:33.280Z,68.30
2022-12-08T03:22:35.859Z,68.46
2022-12-08T03:25:47.093Z,68.40
2022-12-08T03:28:49.399Z,68.77
2022-12-08T03:31:58.118Z,68.29
2022-12-08T03:35:03.575Z,68.55
2022-12-08T03:38:10.795Z,68.17
2022-12-08T03:41:18.788Z,68.14
2022-12-08T03:44:21.083Z,68.11
2022-12-08T03:47:23.492Z,68.29
2022-12-08T03:50:25.962Z,67.84
2022-12-08T03:53:28.346Z,68.50
2022-12-08T03:56:33.337Z,68.50
2022-12-08T03:59:35.637Z,67.94
2022-12-08T04:02:37.983Z,67.76
2022-12-08T04:05:40.273Z,68.35
2022-12-08T04:08:42.627Z,67.84
2022-12-08T04:11:44.920Z,68.29
2022-12-08T04:14:47.797Z,66.99
2022-12-08T04:17:50.103Z,67.82
2022-12-08T04:20:53.334Z,67.93
2022-12-08T04:24:00.814Z,67.78
2022-12-08T04:27:03.815Z,67.43
2022-12-08T04:30:07.028Z,66.82
2022-12-08T04:33:09.698Z,66.75
2022-12-08T04:36:12.012Z,66.73
2022-12-08T04:39:14.399Z,66.61
2022-12-08T04:42:16.667Z,67.46
2022-12-08T04:45:19.237Z,67.18
2022-12-08T04:48:21.551Z,67.32
2022-12-08T04:51:23.908Z,67.18
2022-12-08T04:54:27.143Z,66.36
2022-12-08T04:57:29.560Z,66.94
2022-12-08T05:00:31.800Z,66.81
2022-12-08T05:03:34.518Z,67.16
2022-12-08T05:06:36.778Z,66.97
2022-12-08T05:09:39.219Z,67.30
2022-12-08T05:12:41.585Z,67.15
2022-12-08T05:15:44.128Z,67.60
2022-12-08T05:18:46.525Z,66.98
2022-12-08T05:21:48.926Z,66.73
2022-12-08T05:24:51.171Z,67.03
2022-12-08T05:28:06.152Z,67.17
2022-12-08T05:31:16.941Z,67.63
2022-12-08T05:34:19.355Z,66.58
2022-12-08T05:37:21.647Z,67.53
2022-12-08T05:40:23.907Z,67.87
2022-12-08T05:43:27.136Z,67.66
2022-12-08T05:46:29.673Z,67.42
2022-12-08T05:49:32.095Z,67.46
2022-12-08T05:52:34.446Z,66.95
2022-12-08T05:55:37.923Z,67.73
2022-12-08T05:58:40.305Z,66.74
2022-12-08T06:01:43.012Z,67.15
2022-12-08T06:04:45.527Z,67.21
2022-12-08T06:07:47.814Z,67.58
2022-12-08T06:10:50.301Z,67.75
2022-12-08T06:13:53.106Z,67.31
2022-12-08T06:16:55.512Z,67.25
2022-12-08T06:19:57.858Z,67.08
2022-12-08T06:23:00.271Z,67.54
2022-12-08T06:26:07.832Z,67.65
2022-12-08T06:29:10.510Z,67.36
2022-12-08T06:32:12.983Z,67.08
2022-12-08T06:35:15.387Z,67.44
2022-12-08T06:38:17.720Z,68.02
2022-12-08T06:41:20.103Z,67.14
2022-12-08T06:44:22.534Z,67.75
2022-12-08T06:47:26.422Z,67.61
2022-12-08T06:50:28.985Z,67.48
2022-12-08T06:53:31.271Z,67.23
2022-12-08T06:56:33.563Z,67.54
2022-12-08T06:59:35.793Z,67.43
2022-12-08T07:02:38.963Z,67.33
2022-12-08T07:05:41.897Z,67.95
2022-12-08T07:08:44.346Z,68.26
2022-12-08T07:11:46.714Z,68.80
2022-12-08T07:14:48.971Z,68.73
2022-12-08T07:17:56.293Z,68.30
2022-12-08T07:21:06.146Z,68.32
2022-12-08T07:24:08.660Z,67.96
2022-12-08T07:27:10.921Z,67.50
2022-12-08T07:30:13.918Z,67.26
2022-12-08T07:33:16.193Z,67.38
2022-12-08T07:36:18.856Z,67.31
2022-12-08T07:39:21.246Z,66.94
2022-12-08T07:42:23.496Z,67.63
2022-12-08T07:45:31.449Z,67.85
2022-12-08T07:48:34.457Z,68.03
2022-12-08T07:51:36.726Z,68.50
2022-12-08T07:54:39.198Z,68.04
2022-12-08T07:57:42.763Z,66.86
2022-12-08T08:00:45.120Z,66.09
2022-12-08T08:03:47.517Z,67.39
2022-12-08T08:06:50.043Z,65.54
2022-12-08T08:09:52.301Z,64.60
2022-12-08T08:12:54.927Z,64.52
2022-12-08T08:16:04.398Z,64.91
2022-12-08T08:19:06.795Z,64.63
2022-12-08T08:22:09.208Z,64.38
2022-12-08T08:25:11.499Z,63.25
2022-12-08T08:28:13.779Z,64.69
2022-12-08T08:31:16.576Z,64.47
2022-12-08T08:34:18.912Z,64.07
2022-12-08T08:37:21.199Z,64.80
2022-12-08T08:40:23.767Z,63.60
2022-12-08T08:43:32.947Z,63.03
2022-12-08T08:46:38.636Z,62.39
2022-12-08T08:49:41.144Z,62.29
2022-12-08T08:52:43.417Z,61.99
2022-12-08T08:55:45.684Z,62.69
2022-12-08T08:58:49.650Z,61.85
2022-12-08T09:01:52.070Z,62.41
2022-12-08T09:04:54.491Z,62.66
2022-12-08T09:07:56.819Z,62.79
2022-12-08T09:10:59.117Z,61.78
2022-12-08T09:14:01.488Z,62.67
2022-12-08T09:17:04.100Z,63.01
2022-12-08T09:20:07.723Z,63.83
2022-12-08T09:23:13.006Z,64.16
2022-12-08T09:26:15.464Z,63.85
2022-12-08T09:29:17.886Z,64.21
2022-12-08T09:32:20.385Z,63.09
2022-12-08T09:35:22.728Z,65.12
2022-12-08T09:38:25.005Z,63.61
2022-12-08T09:41:44.892Z,61.89
2022-12-08T09:44:57.344Z,61.60
2022-12-08T09:48:20.221Z,61.71
2022-12-08T09:51:27.910Z,59.97
2022-12-08T09:54:39.206Z,61.40
2022-12-08T09:57:41.622Z,63.15
2022-12-08T10:00:44.037Z,63.57
2022-12-08T10:04:06.723Z,63.67
2022-12-08T10:07:27.676Z,64.16
2022-12-08T10:10:38.750Z,61.92
2022-12-08T10:14:02.732Z,61.18
2022-12-08T10:17:14.896Z,62.16
2022-12-08T10:20:21.159Z,62.07
2022-12-08T10:23:26.710Z,62.08
2022-12-08T10:26:32.802Z,62.36
2022-12-08T10:29:35.064Z,60.85
2022-12-08T10:32:37.316Z,61.53
2022-12-08T10:36:00.616Z,60.72
2022-12-08T10:39:02.913Z,60.27
2022-12-08T10:42:09.915Z,60.07
2022-12-08T10:45:18.111Z,59.68
2022-12-08T10:48:23.118Z,58.65
2022-12-08T10:51:28.607Z,59.80
2022-12-08T10:54:37.404Z,58.70
2022-12-08T10:57:39.683Z,59.11
2022-12-08T11:00:42.033Z,58.68
2022-12-08T11:03:51.545Z,59.03
2022-12-08T11:06:53.879Z,59.60
2022-12-08T11:09:58.316Z,59.73
2022-12-08T11:13:02.613Z,59.83
2022-12-08T11:16:06.256Z,59.98
2022-12-08T11:19:15.002Z,59.49
2022-12-08T11:22:29.338Z,62.89
2022-12-08T11:25:31.539Z,59.56
2022-12-08T11:28:33.891Z,61.53
2022-12-08T11:32:03.035Z,60.11
2022-12-08T11:35:07.029Z,60.93
2022-12-08T11:38:21.919Z,59.61
2022-12-08T11:41:29.032Z,59.92
2022-12-08T11:44:36.075Z,59.81
2022-12-08T11:47:55.830Z,60.01
2022-12-08T11:51:06.237Z,60.12
2022-12-08T11:54:31.198Z,60.90
2022-12-08T11:57:33.503Z,60.05
2022-12-08T12:00:35.873Z,59.77
2022-12-08T12:03:45.012Z,60.96
2022-12-08T12:06:55.806Z,59.91
2022-12-08T12:10:20.937Z,59.12
2022-12-08T12:13:32.098Z,59.76
2022-12-08T12:16:37.298Z,60.26
2022-12-08T12:19:40.214Z,60.90
2022-12-08T12:22:44.833Z,59.17
2022-12-08T12:26:02.883Z,59.00
2022-12-08T12:29:16.846Z,59.19
2022-12-08T12:32:19.268Z,59.45
2022-12-08T12:35:27.817Z,59.08
2022-12-08T12:38:55.965Z,59.21
2022-12-08T12:42:05.649Z,58.95
2022-12-08T12:45:32.502Z,59.30
2022-12-08T12:48:34.804Z,57.95
2022-12-08T12:51:45.024Z,58.08
2022-12-08T12:54:50.189Z,57.05
2022-12-08T12:57:58.458Z,57.38
2022-12-08T13:01:12.955Z,58.83
2022-12-08T13:04:16.341Z,58.50
2022-12-08T13:07:23.731Z,58.89
2022-12-08T13:10:29.193Z,58.47
2022-12-08T13:13:31.656Z,58.99
2022-12-08T13:16:40.362Z,58.01
2022-12-08T13:19:47.533Z,58.70
2022-12-08T13:22:53.707Z,57.38
2022-12-08T13:26:23.549Z,58.15
2022-12-08T13:29:26.534Z,58.52
2022-12-08T13:32:29.334Z,59.40
2022-12-08T13:35:36.840Z,59.84
2022-12-08T13:38:39.422Z,60.03
2022-12-08T13:41:44.923Z,59.67
2022-12-08T13:45:59.217Z,59.04
2022-12-08T13:50:42.713Z,59.48
2022-12-08T13:59:07.158Z,58.88
2022-12-08T14:02:39.530Z,58.26
2022-12-08T14:09:12.155Z,58.89
2022-12-08T14:12:21.781Z,58.68
2022-12-08T14:15:25.612Z,59.47
2022-12-08T14:18:31.859Z,58.90
2022-12-08T14:21:36.224Z,58.36
2022-12-08T14:24:40.018Z,59.70
2022-12-08T14:27:42.931Z,59.76
2022-12-08T14:30:45.332Z,59.59
2022-12-08T14:33:51.788Z,58.76
2022-12-08T14:36:58.160Z,59.36
2022-12-08T14:40:06.786Z,58.77
2022-12-08T14:43:09.256Z,60.17
2022-12-08T14:46:22.695Z,60.54
2022-12-08T14:49:51.748Z,59.96
2022-12-08T14:52:54.031Z,60.22
2022-12-08T14:55:56.354Z,60.45
2022-12-08T14:59:03.303Z,60.35
2022-12-08T15:03:16.958Z,59.59
2022-12-08T15:06:22.756Z,60.18
2022-12-08T15:09:32.806Z,60.99
2022-12-08T15:12:35.144Z,61.69
2022-12-08T15:15:51.089Z,60.97
2022-12-08T15:19:02.791Z,62.03
2022-12-08T15:22:14.096Z,62.19
2022-12-08T15:25:16.431Z,62.57
2022-12-08T15:28:24.040Z,62.31
2022-12-08T15:31:28.923Z,63.50
2022-12-08T15:34:31.729Z,63.33
2022-12-08T15:37:33.993Z,64.40
2022-12-08T15:40:36.244Z,63.93
2022-12-08T15:43:38.511Z,64.57
2022-12-08T15:46:40.801Z,64.40
2022-12-08T15:49:43.363Z,64.55
2022-12-08T15:52:45.726Z,64.84
2022-12-08T15:56:10.876Z,63.92
2022-12-08T15:59:15.712Z,64.52
2022-12-08T16:02:22.511Z,64.50
2022-12-08T16:05:44.295Z,64.44
2022-12-08T16:08:56.095Z,65.30
2022-12-08T16:13:48.168Z,64.37
2022-12-08T16:16:19.677Z,65.01
2022-12-08T16:19:21.985Z,65.38
2022-12-08T16:26:17.141Z,66.26
2022-12-08T16:29:18.524Z,65.27
2022-12-08T16:32:20.926Z,66.57
2022-12-08T16:35:23.206Z,67.41
2022-12-08T16:38:25.464Z,68.17
2022-12-08T16:41:46.376Z,68.00
2022-12-08T16:44:48.651Z,68.03
2022-12-08T16:47:56.465Z,67.59
2022-12-08T16:50:58.799Z,67.89
2022-12-08T16:54:01.120Z,67.83
2022-12-08T16:57:03.374Z,68.22
2022-12-08T17:00:07.702Z,67.37
2022-12-08T17:03:11.810Z,67.06
2022-12-08T17:06:18.077Z,68.28
2022-12-08T17:09:20.466Z,67.41
2022-12-08T17:12:22.769Z,67.52
2022-12-08T17:15:25.835Z,67.60
2022-12-08T17:18:28.124Z,67.11
2022-12-08T17:21:30.499Z,67.18
2022-12-08T17:24:32.771Z,66.07
2022-12-08T17:27:36.112Z,66.88
2022-12-08T17:30:38.771Z,67.34
2022-12-08T17:33:41.286Z,67.01
2022-12-08T17:36:43.593Z,66.89
2022-12-08T17:39:45.971Z,67.12
2022-12-08T17:42:48.249Z,67.52
2022-12-08T17:45:50.560Z,66.58
2022-12-08T17:48:53.619Z,68.22
2022-12-08T17:51:58.679Z,67.12
2022-12-08T17:55:00.960Z,66.81
2022-12-08T17:58:04.424Z,66.26
2022-12-08T18:01:10.827Z,65.84
2022-12-08T18:04:13.575Z,65.61
2022-12-08T18:07:18.031Z,65.90
2022-12-08T18:10:20.547Z,65.42
2022-12-08T18:13:22.780Z,65.84
2022-12-08T18:16:26.662Z,66.54
2022-12-08T18:19:29.006Z,65.06
2022-12-08T18:22:31.226Z,63.50
2022-12-08T18:25:33.478Z,63.58
2022-12-08T18:28:36.720Z,63.63
2022-12-08T18:31:39.038Z,63.44
2022-12-08T18:34:41.462Z,63.80
2022-12-08T18:37:43.798Z,63.40
2022-12-08T18:40:46.107Z,64.03
2022-12-08T18:43:48.426Z,64.82
2022-12-08T18:46:51.005Z,64.49
2022-12-08T18:49:53.369Z,64.82
2022-12-08T18:52:55.641Z,64.13
2022-12-08T18:55:57.895Z,64.06
2022-12-08T18:59:03.925Z,65.94
2022-12-08T19:02:06.619Z,66.19
2022-12-08T19:05:10.613Z,65.45
2022-12-08T19:08:13.091Z,64.54
2022-12-08T19:11:20.477Z,65.43
2022-12-08T19:14:27.771Z,66.70
2022-12-08T19:17:31.139Z,66.31
2022-12-08T19:20:33.523Z,66.17
2022-12-08T19:23:35.879Z,66.44
2022-12-08T19:26:38.770Z,66.78
2022-12-08T19:29:41.051Z,66.04
2022-12-08T19:32:43.357Z,65.74
2022-12-08T19:35:52.192Z,64.62
2022-12-08T19:39:14.322Z,66.80
2022-12-08T19:42:37.571Z,66.17
2022-12-08T19:45:39.969Z,66.31
2022-12-08T19:48:42.396Z,66.35
2022-12-08T19:51:44.867Z,66.84
2022-12-08T19:54:47.470Z,67.11
2022-12-08T19:57:50.968Z,66.32
2022-12-08T20:00:53.437Z,66.29
2022-12-08T20:03:55.793Z,66.31
2022-12-08T20:06:58.172Z,67.08
2022-12-08T20:10:00.726Z,66.46
2022-12-08T20:13:22.086Z,66.78
2022-12-08T20:16:24.538Z,66.54
2022-12-08T20:19:27.424Z,66.78
2022-12-08T20:22:32.120Z,67.65
2022-12-08T20:25:35.000Z,67.44
2022-12-08T20:28:37.819Z,66.72
2022-12-08T20:31:40.132Z,66.77
2022-12-08T20:34:42.437Z,67.46
2022-12-08T20:37:44.737Z,66.92
2022-12-08T20:40:47.614Z,67.30
2022-12-08T20:43:50.607Z,68.13
2022-12-08T20:46:53.320Z,68.04
2022-12-08T20:49:55.740Z,68.08
2022-12-08T20:52:58.558Z,68.64
2022-12-08T20:56:02.942Z,67.98
2022-12-08T20:59:05.885Z,67.72
2022-12-08T21:02:10.645Z,67.59
2022-12-08T21:05:13.272Z,68.46
2022-12-08T21:08:15.908Z,67.63
2022-12-08T21:11:18.667Z,68.00
2022-12-08T21:14:21.124Z,68.42
2022-12-08T21:17:23.724Z,68.15
2022-12-08T21:20:26.274Z,67.52
2022-12-08T21:23:28.946Z,67.90
2022-12-08T21:26:31.827Z,68.16
2022-12-08T21:29:34.330Z,67.24
2022-12-08T21:32:39.148Z,68.63
2022-12-08T21:35:41.591Z,69.39
2022-12-08T21:38:44.594Z,68.17
2022-12-08T21:42:05.923Z,68.78
2022-12-08T21:45:09.032Z,68.06
2022-12-08T21:48:12.197Z,68.33
2022-12-08T21:51:14.861Z,68.08
2022-12-08T21:54:19.284Z,68.52
2022-12-08T21:57:21.926Z,68.32
2022-12-08T22:00:24.770Z,68.59
2022-12-08T22:03:28.501Z,69.16
2022-12-08T22:06:31.044Z,68.50
2022-12-08T22:09:33.522Z,68.07
2022-12-08T22:12:37.168Z,68.29
2022-12-08T22:15:39.616Z,67.97
2022-12-08T22:18:42.606Z,68.30
2022-12-08T22:21:45.200Z,67.74
2022-12-08T22:24:47.887Z,69.00
2022-12-08T22:27:50.163Z,68.40
2022-12-08T22:30:52.611Z,69.20
2022-12-08T22:33:55.112Z,68.38
2022-12-08T22:36:57.633Z,68.64
2022-12-08T22:40:00.173Z,68.28
2022-12-08T22:43:02.530Z,68.25
2022-12-08T22:46:14.999Z,68.48
2022-12-08T22:49:17.297Z,68.23
2022-12-08T22:52:19.593Z,68.33
2022-12-08T22:55:21.873Z,67.59
2022-12-08T22:58:24.319Z,68.02
2022-12-08T23:01:29.594Z,68.27
2022-12-08T23:04:32.088Z,68.69
2022-12-08T23:07:34.555Z,67.85
2022-12-08T23:10:36.937Z,68.39
2022-12-08T23:13:42.263Z,67.89
2022-12-08T23:16:44.719Z,69.22
2022-12-08T23:19:47.349Z,68.23
2022-12-08T23:22:49.742Z,68.92
2022-12-08T23:25:52.283Z,68.00
2022-12-08T23:28:55.476Z,68.71
2022-12-08T23:31:58.382Z,69.08
2022-12-08T23:35:00.882Z,68.64
2022-12-08T23:38:03.335Z,68.43
2022-12-08T23:41:07.856Z,68.34
2022-12-08T23:44:12.418Z,67.79
2022-12-08T23:47:14.855Z,68.29
2022-12-08T23:50:17.295Z,68.55
2022-12-08T23:53:19.584Z,68.76
2022-12-08T23:56:24.335Z,69.58
2022-12-08T23:59:31.097Z,69.48
